createdAt,value
2023-03-06T00:02:04.347Z,97776.06
2023-03-06T00:05:07.572Z,97792.66
2023-03-06T00:08:10.485Z,97779.47
2023-03-06T00:11:15.512Z,97798.81
2023-03-06T00:14:18.241Z,97792.59
2023-03-06T00:17:21.197Z,97773.41
2023-03-06T00:20:24.439Z,97770.75
2023-03-06T00:23:27.721Z,97782.97
2023-03-06T00:26:30.503Z,97790.94
2023-03-06T00:29:33.580Z,97785.63
2023-03-06T00:32:36.152Z,97783.91
2023-03-06T00:35:40.337Z,97782.97
2023-03-06T00:38:43.396Z,97779.53
2023-03-06T00:41:47.141Z,97782.97
2023-03-06T00:44:50.056Z,97756.62
2023-03-06T00:47:52.965Z,97782.09
2023-03-06T00:50:55.825Z,97784.75
2023-03-06T00:53:58.679Z,97786.59
2023-03-06T00:57:01.330Z,97774.19
2023-03-06T01:00:05.479Z,97768.09
2023-03-06T01:03:08.247Z,97767.28
2023-03-06T01:06:11.648Z,97730.50
2023-03-06T01:09:14.276Z,97770.81
2023-03-06T01:12:17.581Z,97768.16
2023-03-06T01:15:21.209Z,97768.16
2023-03-06T01:18:24.198Z,97768.13
2023-03-06T01:21:27.164Z,97764.66
2023-03-06T01:24:30.714Z,97746.22
2023-03-06T01:27:33.418Z,97765.50
2023-03-06T01:30:36.500Z,97756.69
2023-03-06T01:33:39.303Z,97759.28
2023-03-06T01:36:42.342Z,97743.34
2023-03-06T01:39:45.378Z,97736.34
2023-03-06T01:42:49.498Z,97746.84
2023-03-06T01:45:52.287Z,97747.75
2023-03-06T01:48:58.359Z,97742.50
2023-03-06T01:52:14.000Z,97714.37
2023-03-06T01:55:23.051Z,97740.69
2023-03-06T01:58:26.033Z,97736.34
2023-03-06T02:01:30.556Z,97736.34
2023-03-06T02:04:34.382Z,97739.00
2023-03-06T02:07:37.927Z,97725.91
2023-03-06T02:10:43.978Z,97739.03
2023-03-06T02:13:47.193Z,97726.75
2023-03-06T02:16:50.921Z,97723.22
2023-03-06T02:20:09.066Z,97731.09
2023-03-06T02:23:21.225Z,97734.69
2023-03-06T02:26:24.928Z,97739.97
2023-03-06T02:29:29.917Z,97722.44
2023-03-06T02:32:34.520Z,97740.00
2023-03-06T02:35:39.620Z,97727.69
2023-03-06T02:38:50.327Z,97720.53
2023-03-06T02:41:54.924Z,97723.25
2023-03-06T02:45:00.917Z,97721.41
2023-03-06T02:48:05.714Z,97729.28
2023-03-06T02:51:08.312Z,97725.78
2023-03-06T02:54:11.526Z,97726.72
2023-03-06T02:57:14.190Z,97731.06
2023-03-06T03:00:19.095Z,97736.38
2023-03-06T03:03:21.894Z,97732.78
2023-03-06T03:06:24.838Z,97717.94
2023-03-06T03:09:29.064Z,97733.62
2023-03-06T03:12:32.737Z,97733.69
2023-03-06T03:15:35.669Z,97740.66
2023-03-06T03:18:38.964Z,97748.59
2023-03-06T03:21:41.946Z,97735.28
2023-03-06T03:24:46.356Z,97738.00
2023-03-06T03:27:49.142Z,97737.94
2023-03-06T03:30:52.553Z,97729.94
2023-03-06T03:33:55.606Z,97724.72
2023-03-06T03:36:58.646Z,97727.28
2023-03-06T03:40:01.356Z,97725.50
2023-03-06T03:43:05.730Z,97721.03
2023-03-06T03:46:08.711Z,97719.25
2023-03-06T03:49:12.314Z,97721.91
2023-03-06T03:52:15.186Z,97719.25
2023-03-06T03:55:18.218Z,97713.06
2023-03-06T03:58:20.997Z,97720.16
2023-03-06T04:01:25.252Z,97686.84
2023-03-06T04:04:28.865Z,97726.31
2023-03-06T04:07:31.628Z,97702.62
2023-03-06T04:10:46.044Z,97721.03
2023-03-06T04:13:49.841Z,97708.75
2023-03-06T04:16:53.097Z,97696.47
2023-03-06T04:19:55.975Z,97726.28
2023-03-06T04:22:59.369Z,97723.59
2023-03-06T04:26:02.258Z,97713.97
2023-03-06T04:29:05.452Z,97724.53
2023-03-06T04:32:08.735Z,97722.78
2023-03-06T04:35:12.387Z,97722.75
2023-03-06T04:38:15.524Z,97718.38
2023-03-06T04:41:18.639Z,97721.00
2023-03-06T04:44:21.512Z,97721.84
2023-03-06T04:47:24.464Z,97731.59
2023-03-06T04:50:31.564Z,97670.31
2023-03-06T04:53:34.484Z,97726.31
2023-03-06T04:56:37.111Z,97723.66
2023-03-06T04:59:40.539Z,97713.94
2023-03-06T05:02:44.131Z,97721.91
2023-03-06T05:05:46.994Z,97723.69
2023-03-06T05:08:49.730Z,97725.47
2023-03-06T05:11:52.818Z,97719.34
2023-03-06T05:14:55.528Z,97719.31
2023-03-06T05:17:58.619Z,97726.38
2023-03-06T05:21:01.382Z,97714.09
2023-03-06T05:24:04.572Z,97716.66
2023-03-06T05:27:07.261Z,97717.56
2023-03-06T05:30:12.304Z,97726.38
2023-03-06T05:33:15.302Z,97702.75
2023-03-06T05:36:18.206Z,97732.63
2023-03-06T05:39:21.091Z,97727.34
2023-03-06T05:42:24.407Z,97735.28
2023-03-06T05:45:27.171Z,97724.13
2023-03-06T05:48:30.396Z,97727.50
2023-03-06T05:51:33.257Z,97729.34
2023-03-06T05:54:37.374Z,97730.88
2023-03-06T05:57:40.445Z,97743.06
2023-03-06T06:00:44.072Z,97734.38
2023-03-06T06:03:47.563Z,97730.09
2023-03-06T06:06:58.565Z,97739.00
2023-03-06T06:10:03.638Z,97645.47
2023-03-06T06:13:06.959Z,97733.97
2023-03-06T06:16:16.396Z,97737.37
2023-03-06T06:19:20.211Z,97740.88
2023-03-06T06:22:23.634Z,97741.78
2023-03-06T06:25:26.376Z,97737.31
2023-03-06T06:28:30.278Z,97741.81
2023-03-06T06:31:33.495Z,97737.47
2023-03-06T06:34:36.711Z,97729.66
2023-03-06T06:37:39.388Z,97755.03
2023-03-06T06:40:42.707Z,97710.28
2023-03-06T06:43:45.400Z,97722.69
2023-03-06T06:47:21.142Z,97751.91
2023-03-06T06:50:13.748Z,97753.03
2023-03-06T06:53:16.967Z,97756.41
2023-03-06T06:56:19.594Z,97745.25
2023-03-06T06:59:23.865Z,97751.09
2023-03-06T07:02:26.668Z,97755.59
2023-03-06T07:05:29.883Z,97753.91
2023-03-06T07:08:33.013Z,97682.25
2023-03-06T07:11:37.894Z,97751.19
2023-03-06T07:14:42.297Z,97759.97
2023-03-06T07:17:45.375Z,97663.72
2023-03-06T07:20:48.128Z,97750.31
2023-03-06T07:23:51.299Z,97752.00
2023-03-06T07:26:56.150Z,97654.97
2023-03-06T07:29:59.127Z,97764.41
2023-03-06T07:33:02.442Z,97676.00
2023-03-06T07:36:11.809Z,97757.31
2023-03-06T07:39:15.637Z,97774.84
2023-03-06T07:42:18.736Z,97534.38
2023-03-06T07:45:22.637Z,97776.66
2023-03-06T07:48:26.980Z,97773.91
2023-03-06T07:51:29.751Z,97714.37
2023-03-06T07:54:35.190Z,97756.34
2023-03-06T07:57:38.553Z,97758.09
2023-03-06T08:00:41.861Z,97786.19
2023-03-06T08:03:45.313Z,97785.28
2023-03-06T08:06:48.309Z,97787.94
2023-03-06T08:09:51.562Z,97789.69
2023-03-06T08:12:54.365Z,97794.91
2023-03-06T08:15:57.315Z,97746.81
2023-03-06T08:19:00.118Z,97794.81
2023-03-06T08:22:05.847Z,97785.97
2023-03-06T08:25:09.081Z,97788.59
2023-03-06T08:28:12.182Z,97789.50
2023-03-06T08:31:38.405Z,97785.00
2023-03-06T08:34:42.850Z,97777.91
2023-03-06T08:37:45.697Z,97758.56
2023-03-06T08:40:48.923Z,97778.81
2023-03-06T08:43:52.300Z,97691.37
2023-03-06T08:46:56.240Z,97698.34
2023-03-06T08:50:00.591Z,97789.31
2023-03-06T08:53:04.166Z,97790.16
2023-03-06T08:56:07.391Z,97686.91
2023-03-06T08:59:10.587Z,97738.59
2023-03-06T09:02:15.286Z,97779.47
2023-03-06T09:05:18.663Z,97791.69
2023-03-06T09:08:21.462Z,97796.94
2023-03-06T09:11:25.382Z,97795.12
2023-03-06T09:14:28.208Z,97795.97
2023-03-06T09:17:31.302Z,97720.69
2023-03-06T09:20:34.216Z,97792.38
2023-03-06T09:23:39.686Z,97789.84
2023-03-06T09:26:46.722Z,97794.22
2023-03-06T09:29:50.185Z,97724.91
2023-03-06T09:32:52.822Z,97777.19
2023-03-06T09:35:56.844Z,97769.06
2023-03-06T09:38:59.631Z,97760.91
2023-03-06T09:42:02.949Z,97758.38
2023-03-06T09:45:06.252Z,97768.81
2023-03-06T09:48:13.864Z,97770.31
2023-03-06T09:51:17.421Z,97767.63
2023-03-06T09:54:27.162Z,97758.63
2023-03-06T09:57:37.351Z,97753.63
2023-03-06T10:00:46.440Z,97751.97
2023-03-06T10:03:51.167Z,97749.03
2023-03-06T10:06:56.961Z,97758.72
2023-03-06T10:10:07.552Z,97756.94
2023-03-06T10:13:16.631Z,97748.81
2023-03-06T10:16:31.792Z,97745.94
2023-03-06T10:19:40.171Z,97722.84
2023-03-06T10:22:58.541Z,97741.81
2023-03-06T10:26:28.215Z,97731.75
2023-03-06T10:29:56.422Z,97736.69
2023-03-06T10:33:07.603Z,97721.87
2023-03-06T10:36:15.232Z,97740.28
2023-03-06T10:39:22.712Z,97724.47
2023-03-06T10:42:27.966Z,97636.31
2023-03-06T10:45:47.218Z,97716.63
2023-03-06T10:48:58.259Z,97719.41
2023-03-06T10:52:21.434Z,97726.50
2023-03-06T10:55:26.409Z,97708.88
2023-03-06T10:58:31.378Z,97715.78
2023-03-06T11:01:35.184Z,97701.38
2023-03-06T11:04:39.263Z,97695.31
2023-03-06T11:07:57.262Z,97645.63
2023-03-06T11:11:01.738Z,97671.66
2023-03-06T11:14:15.359Z,97685.72
2023-03-06T11:17:29.136Z,97669.03
2023-03-06T11:20:51.974Z,97629.91
2023-03-06T11:23:57.972Z,97661.25
2023-03-06T11:27:05.884Z,97648.91
2023-03-06T11:30:21.990Z,97558.81
2023-03-06T11:33:38.801Z,97463.69
2023-03-06T11:36:50.421Z,97634.97
2023-03-06T11:40:11.970Z,97629.06
2023-03-06T11:43:27.231Z,97635.94
2023-03-06T11:46:38.296Z,97625.09
2023-03-06T11:49:44.906Z,97607.50
2023-03-06T11:53:01.711Z,97564.94
2023-03-06T11:56:07.623Z,97603.91
2023-03-06T11:59:29.502Z,97596.09
2023-03-06T12:02:39.683Z,97580.13
2023-03-06T12:05:51.395Z,97584.53
2023-03-06T12:08:58.630Z,97573.16
2023-03-06T12:12:09.244Z,97549.50
2023-03-06T12:15:12.125Z,97559.34
2023-03-06T12:18:37.472Z,97571.56
2023-03-06T12:21:43.237Z,97557.28
2023-03-06T12:24:55.448Z,97562.81
2023-03-06T12:28:08.351Z,97569.06
2023-03-06T12:31:28.330Z,97548.28
2023-03-06T12:34:37.159Z,97543.78
2023-03-06T12:38:27.716Z,97547.34
2023-03-06T12:42:04.871Z,97545.75
2023-03-06T12:45:10.865Z,97557.53
2023-03-06T12:48:21.592Z,97544.69
2023-03-06T12:51:24.863Z,97534.81
2023-03-06T12:54:29.904Z,97529.59
2023-03-06T12:57:32.967Z,97518.44
2023-03-06T13:01:03.699Z,97534.22
2023-03-06T13:04:50.191Z,97533.59
2023-03-06T13:08:15.845Z,97538.16
2023-03-06T13:11:38.852Z,97531.34
2023-03-06T13:14:48.725Z,97530.38
2023-03-06T13:17:56.030Z,97530.19
2023-03-06T13:20:59.302Z,97511.47
2023-03-06T13:24:06.229Z,97507.94
2023-03-06T13:27:11.451Z,97506.94
2023-03-06T13:30:39.119Z,97498.97
2023-03-06T13:33:44.853Z,97507.59
2023-03-06T13:36:47.906Z,97503.22
2023-03-06T13:39:53.583Z,97403.72
2023-03-06T13:43:02.858Z,97494.06
2023-03-06T13:46:24.901Z,97497.62
2023-03-06T13:49:28.699Z,97492.34
2023-03-06T13:52:55.961Z,97480.28
2023-03-06T13:56:30.124Z,97503.78
2023-03-06T14:00:10.065Z,97486.16
2023-03-06T14:03:22.112Z,97472.84
2023-03-06T14:06:42.298Z,97476.28
2023-03-06T14:09:48.683Z,97469.81
2023-03-06T14:12:51.325Z,97457.97
2023-03-06T14:15:55.621Z,97478.37
2023-03-06T14:19:00.090Z,97463.37
2023-03-06T14:22:03.969Z,97459.91
2023-03-06T14:25:29.024Z,97451.41
2023-03-06T14:28:33.255Z,97465.34
2023-03-06T14:31:42.903Z,97459.09
2023-03-06T14:34:47.010Z,97429.47
2023-03-06T14:37:55.638Z,97454.59
2023-03-06T14:40:58.757Z,97448.44
2023-03-06T14:44:23.967Z,97433.50
2023-03-06T14:47:29.817Z,97450.28
2023-03-06T14:50:35.853Z,97423.34
2023-03-06T14:53:39.120Z,97431.09
2023-03-06T14:56:43.101Z,97416.31
2023-03-06T14:59:54.453Z,97423.34
2023-03-06T15:02:57.871Z,97427.88
2023-03-06T15:06:01.448Z,97420.06
2023-03-06T15:09:07.956Z,97426.97
2023-03-06T15:12:20.815Z,97425.34
2023-03-06T15:15:31.937Z,97433.41
2023-03-06T15:18:54.620Z,97422.88
2023-03-06T15:21:57.800Z,97261.16
2023-03-06T15:25:15.751Z,97429.09
2023-03-06T15:28:32.450Z,97428.53
2023-03-06T15:31:45.273Z,97419.31
2023-03-06T15:34:48.440Z,97411.69
2023-03-06T15:37:52.374Z,97395.34
2023-03-06T15:41:00.641Z,97406.84
2023-03-06T15:44:12.399Z,97403.50
2023-03-06T15:47:14.989Z,97394.13
2023-03-06T15:50:29.075Z,97395.06
2023-03-06T15:53:32.185Z,97387.41
2023-03-06T15:56:40.921Z,97393.72
2023-03-06T15:59:44.839Z,97394.59
2023-03-06T16:02:47.969Z,97400.03
2023-03-06T16:05:50.957Z,97402.81
2023-03-06T16:08:53.939Z,97404.53
2023-03-06T16:11:57.381Z,97409.94
2023-03-06T16:15:01.527Z,97398.81
2023-03-06T16:18:06.262Z,97403.34
2023-03-06T16:21:08.949Z,97403.50
2023-03-06T16:24:13.106Z,97406.06
2023-03-06T16:27:22.750Z,97412.28
2023-03-06T16:30:30.852Z,97420.25
2023-03-06T16:33:35.055Z,97424.72
2023-03-06T16:36:38.416Z,97416.87
2023-03-06T16:39:41.383Z,97417.81
2023-03-06T16:42:45.019Z,97420.53
2023-03-06T16:45:48.049Z,97408.41
2023-03-06T16:48:52.727Z,97427.59
2023-03-06T16:51:56.348Z,97422.28
2023-03-06T16:54:59.593Z,97424.19
2023-03-06T16:58:02.275Z,97423.31
2023-03-06T17:01:06.340Z,97425.97
2023-03-06T17:04:09.075Z,97430.47
2023-03-06T17:07:12.199Z,97419.06
2023-03-06T17:10:18.187Z,97413.00
2023-03-06T17:13:21.549Z,97420.06
2023-03-06T17:16:24.623Z,97431.53
2023-03-06T17:19:27.986Z,97431.66
2023-03-06T17:22:33.481Z,97439.59
2023-03-06T17:25:38.445Z,97421.44
2023-03-06T17:28:42.348Z,97442.31
2023-03-06T17:31:47.148Z,97439.75
2023-03-06T17:34:50.088Z,97431.81
2023-03-06T17:37:53.727Z,97432.87
2023-03-06T17:40:56.490Z,97428.56
2023-03-06T17:44:01.644Z,97432.13
2023-03-06T17:47:05.100Z,97421.59
2023-03-06T17:50:09.200Z,97422.63
2023-03-06T17:53:12.054Z,97413.84
2023-03-06T17:56:15.737Z,97396.44
2023-03-06T17:59:18.794Z,97398.19
2023-03-06T18:02:22.211Z,97398.16
2023-03-06T18:05:25.691Z,97401.72
2023-03-06T18:08:28.376Z,97393.81
2023-03-06T18:11:33.009Z,97391.28
2023-03-06T18:14:37.089Z,97401.87
2023-03-06T18:17:40.480Z,97410.59
2023-03-06T18:20:45.213Z,97414.12
2023-03-06T18:23:50.670Z,97417.63
2023-03-06T18:26:53.486Z,97416.63
2023-03-06T18:29:57.761Z,97415.84
2023-03-06T18:33:02.189Z,97411.47
2023-03-06T18:36:05.466Z,97420.31
2023-03-06T18:39:10.156Z,97415.13
2023-03-06T18:42:13.540Z,97412.41
2023-03-06T18:45:16.561Z,97410.69
2023-03-06T18:48:19.893Z,97415.97
2023-03-06T18:51:22.845Z,97410.59
2023-03-06T18:54:28.621Z,97403.53
2023-03-06T18:57:31.600Z,97396.47
2023-03-06T19:00:34.958Z,97391.28
2023-03-06T19:03:38.186Z,97400.88
2023-03-06T19:06:41.641Z,97408.84
2023-03-06T19:09:45.233Z,97408.84
2023-03-06T19:12:48.434Z,97405.22
2023-03-06T19:15:51.244Z,97393.97
2023-03-06T19:18:58.137Z,97396.47
2023-03-06T19:22:01.137Z,97391.25
2023-03-06T19:25:04.839Z,97391.25
2023-03-06T19:28:07.775Z,97392.97
2023-03-06T19:31:13.914Z,97399.31
2023-03-06T19:34:17.158Z,97402.87
2023-03-06T19:37:20.519Z,97378.53
2023-03-06T19:40:23.445Z,97402.19
2023-03-06T19:43:27.781Z,97416.31
2023-03-06T19:46:31.876Z,97411.09
2023-03-06T19:49:35.422Z,97418.13
2023-03-06T19:52:39.140Z,97421.53
2023-03-06T19:55:42.468Z,97412.75
2023-03-06T19:58:45.612Z,97407.41
2023-03-06T20:01:49.318Z,97397.72
2023-03-06T20:04:56.423Z,97381.28
2023-03-06T20:07:59.200Z,97397.09
2023-03-06T20:11:02.662Z,97400.56
2023-03-06T20:14:07.361Z,97405.81
2023-03-06T20:17:11.457Z,97408.78
2023-03-06T20:20:14.711Z,97401.97
2023-03-06T20:23:18.007Z,97385.69
2023-03-06T20:26:21.322Z,97384.75
2023-03-06T20:29:28.041Z,97383.06
2023-03-06T20:32:31.580Z,97379.75
2023-03-06T20:35:35.024Z,97381.75
2023-03-06T20:38:39.081Z,97392.19
2023-03-06T20:41:42.587Z,97356.53
2023-03-06T20:44:45.492Z,97385.28
2023-03-06T20:47:48.668Z,97390.62
2023-03-06T20:51:01.409Z,97404.81
2023-03-06T20:54:07.041Z,97407.47
2023-03-06T20:57:10.228Z,97418.06
2023-03-06T21:00:14.106Z,97415.38
2023-03-06T21:03:17.229Z,97407.41
2023-03-06T21:06:21.025Z,97399.66
2023-03-06T21:09:23.993Z,97392.56
2023-03-06T21:12:27.120Z,97400.22
2023-03-06T21:15:30.820Z,97404.66
2023-03-06T21:18:33.926Z,97376.56
2023-03-06T21:21:36.750Z,97391.38
2023-03-06T21:24:40.461Z,97389.00
2023-03-06T21:27:43.350Z,97398.06
2023-03-06T21:30:46.397Z,97389.50
2023-03-06T21:33:49.980Z,97383.38
2023-03-06T21:36:52.916Z,97394.16
2023-03-06T21:39:59.681Z,97398.62
2023-03-06T21:43:03.595Z,97403.22
2023-03-06T21:46:06.713Z,97404.22
2023-03-06T21:49:09.847Z,97414.00
2023-03-06T21:52:12.605Z,97393.97
2023-03-06T21:55:16.053Z,97395.59
2023-03-06T21:58:18.648Z,97388.47
2023-03-06T22:01:27.063Z,97393.72
2023-03-06T22:04:30.217Z,97398.12
2023-03-06T22:07:39.481Z,97391.94
2023-03-06T22:10:42.454Z,97374.28
2023-03-06T22:13:45.725Z,97399.66
2023-03-06T22:16:51.203Z,97412.16
2023-03-06T22:19:54.097Z,97407.84
2023-03-06T22:22:57.302Z,97401.72
2023-03-06T22:26:08.429Z,97394.78
2023-03-06T22:29:11.460Z,97395.59
2023-03-06T22:32:14.341Z,97389.47
2023-03-06T22:35:17.513Z,97402.56
2023-03-06T22:38:20.111Z,97403.34
2023-03-06T22:41:23.229Z,97395.34
2023-03-06T22:44:26.275Z,97393.53
2023-03-06T22:47:29.151Z,97392.63
2023-03-06T22:50:33.564Z,97402.31
2023-03-06T22:53:37.227Z,97392.66
2023-03-06T22:56:39.858Z,97394.37
2023-03-06T22:59:43.244Z,97395.28
2023-03-06T23:02:45.832Z,97394.44
2023-03-06T23:05:48.892Z,97385.00
2023-03-06T23:08:55.839Z,97398.94
2023-03-06T23:11:58.904Z,97402.53
2023-03-06T23:15:19.648Z,97401.69
2023-03-06T23:18:41.463Z,97396.31
2023-03-06T23:22:02.990Z,97408.66
2023-03-06T23:25:24.464Z,97411.34
2023-03-06T23:28:28.292Z,97420.13
2023-03-06T23:31:31.580Z,97411.34
2023-03-06T23:34:34.626Z,97391.25
2023-03-06T23:37:37.488Z,97409.59
2023-03-06T23:40:40.903Z,97410.53
2023-03-06T23:43:45.162Z,97422.00
2023-03-06T23:46:48.166Z,97388.63
2023-03-06T23:49:51.050Z,97412.16
2023-03-06T23:52:55.093Z,97402.41
2023-03-06T23:55:58.111Z,97395.31
2023-03-06T23:59:01.302Z,97393.72
